Search for airport 
image banner adimage banner adimage banner ad
image banner ad

6CL3 - William Shells Co

Located in Fillmore, United States

ICAO - 6CL3, IATA -

Data provided by Airmate  

General information

Coordinates: N34°22'49" W118°52'7"
Elevation is 720 feet MSL.
Magnetic variation is 14° East
View others Airports in California

Operational data

Special qualification required
Current time UTC:
Current local time:
Weather at : KCMA - Camarillo ( 28 km )
METAR: KCMA 231355Z 36003KT 2SM HZ OVC004 17/14 A2992 RMK AO2 SLP140 T01670139
TAF: KCMA 231144Z 2312/2412 VRB03KT 4SM BR OVC004 FM231600 VRB03KT P6SM BKN006 FM231700 24009KT P6SM SKC FM240300 VRB03KT P6SM SKC FM240600 VRB03KT 6SM BR OVC007
View NOTAMs / SUP AIP / TFR affecting this airport [VIEW]
Communications frequencies: [VIEW]

Runways:

Airport contact information

Address: Fillmore United States

Satellite view of 6CL3